Time;durP1;ratioP1;P1;durP2;ratioP2;P2;SDS_P1;SDS_P2;PMS_P1;PMS_P2;Temp;Humidity;BMP_temperature;BMP_pressure;BME280_temperature;BME280_humidity;BME280_pressure;Samples;Min_cycle;Max_cycle;Signal;HPM_P1;HPM_P2
2022/09/03 00:00:53;;;;;;;4.85;3.22;;;15.90;99.90;;;;;;5038841;28;20052;-69
2022/09/03 00:03:30;;;;;;;10.60;4.50;;;15.80;99.90;;;;;;5046864;28;20437;-68
2022/09/03 00:06:19;;;;;;;6.65;3.90;;;15.80;99.90;;;;;;5039016;28;20056;-68
2022/09/03 00:09:03;;;;;;;4.85;3.40;;;15.80;99.90;;;;;;5056226;28;20043;-68
2022/09/03 00:11:39;;;;;;;7.78;3.70;;;15.70;99.90;;;;;;5056735;28;20048;-69
2022/09/03 00:14:11;;;;;;;6.40;3.38;;;15.70;99.90;;;;;;5041090;28;20052;-69
2022/09/03 00:16:44;;;;;;;5.68;3.40;;;15.60;99.90;;;;;;5064569;28;20136;-69
2022/09/03 00:19:14;;;;;;;8.73;3.47;;;15.60;99.90;;;;;;5045672;28;20102;-68
2022/09/03 00:21:47;;;;;;;4.43;3.15;;;15.60;99.90;;;;;;5042690;28;20483;-69
2022/09/03 00:24:17;;;;;;;4.55;3.40;;;15.50;99.90;;;;;;5044329;28;20043;-68
2022/09/03 00:26:52;;;;;;;5.13;3.33;;;15.50;99.90;;;;;;5060519;28;20392;-69
2022/09/03 00:29:35;;;;;;;7.35;4.15;;;15.50;99.90;;;;;;5045443;28;20091;-69
2022/09/03 00:32:12;;;;;;;;;;;15.50;99.90;;;;;;5044997;28;20072;-68
2022/09/03 00:34:42;;;;;;;8.18;3.33;;;15.40;99.90;;;;;;5046566;28;19998;-68
2022/09/03 00:37:09;;;;;;;8.25;3.30;;;15.40;99.90;;;;;;5037763;28;20049;-69
2022/09/03 00:39:36;;;;;;;10.73;3.63;;;15.40;99.90;;;;;;5046251;28;20055;-68
2022/09/03 00:42:16;;;;;;;4.68;3.33;;;15.40;99.90;;;;;;5041692;28;20059;-68
2022/09/03 00:44:53;;;;;;;6.63;3.20;;;15.40;99.90;;;;;;5046884;28;20128;-70
2022/09/03 00:47:36;;;;;;;8.07;3.17;;;15.30;99.90;;;;;;5057488;28;20037;-70
2022/09/03 00:50:38;;;;;;;5.40;2.92;;;15.30;99.90;;;;;;5047450;28;20065;-68
2022/09/03 00:53:09;;;;;;;3.72;2.67;;;15.30;99.90;;;;;;5035096;28;20124;-69
2022/09/03 00:56:08;;;;;;;4.70;2.92;;;15.20;99.90;;;;;;5036096;28;20541;-68
2022/09/03 00:58:51;;;;;;;3.67;2.90;;;15.20;99.90;;;;;;5059078;28;20933;-68
2022/09/03 01:01:28;;;;;;;4.88;2.80;;;15.20;99.90;;;;;;5036001;28;21203;-68
2022/09/03 01:04:22;;;;;;;4.15;2.55;;;15.20;99.90;;;;;;5047823;28;20037;-68
2022/09/03 01:07:17;;;;;;;4.43;2.60;;;15.10;99.90;;;;;;5057960;28;20132;-69
2022/09/03 01:10:03;;;;;;;6.05;2.90;;;15.10;99.90;;;;;;5045526;28;20063;-68
2022/09/03 01:12:34;;;;;;;3.70;2.53;;;15.00;99.90;;;;;;5048816;28;20070;-68
2022/09/03 01:15:16;;;;;;;4.13;2.92;;;15.00;99.90;;;;;;5043540;28;20043;-68
2022/09/03 01:18:03;;;;;;;3.78;2.78;;;15.00;99.90;;;;;;5047231;28;20064;-68
2022/09/03 01:20:58;;;;;;;8.40;2.85;;;15.00;99.90;;;;;;5047681;28;20041;-68
2022/09/03 01:23:59;;;;;;;6.45;2.80;;;15.00;99.90;;;;;;5057160;28;20040;-68
2022/09/03 01:26:34;;;;;;;6.10;2.50;;;14.90;99.90;;;;;;5062862;28;20491;-68
2022/09/03 01:29:15;;;;;;;4.43;2.50;;;14.90;99.90;;;;;;5050620;28;20045;-69
2022/09/03 01:31:56;;;;;;;5.60;2.67;;;14.90;99.90;;;;;;5060346;28;20040;-69
2022/09/03 01:34:52;;;;;;;5.43;2.58;;;14.80;99.90;;;;;;5040612;28;20075;-68
2022/09/03 01:37:57;;;;;;;5.55;2.72;;;14.80;99.90;;;;;;5061515;28;20049;-68
2022/09/03 01:40:34;;;;;;;7.47;2.60;;;14.80;99.90;;;;;;5042216;28;20640;-68
2022/09/03 01:43:31;;;;;;;6.20;2.58;;;14.80;99.90;;;;;;5042009;28;20060;-68
2022/09/03 01:46:18;;;;;;;4.07;2.20;;;14.80;99.90;;;;;;5044159;28;20082;-68
2022/09/03 01:48:49;;;;;;;5.88;2.50;;;14.80;99.90;;;;;;5044163;28;20037;-68
2022/09/03 01:51:22;;;;;;;4.65;2.53;;;14.70;99.90;;;;;;5043168;28;20763;-69
2022/09/03 01:53:51;;;;;;;5.65;2.40;;;14.70;99.90;;;;;;5053983;28;20075;-68
2022/09/03 01:56:33;;;;;;;2.88;2.17;;;14.70;99.90;;;;;;5046355;28;20068;-68
2022/09/03 01:59:10;;;;;;;6.82;2.92;;;14.70;99.90;;;;;;5060769;28;20055;-69
2022/09/03 02:01:47;;;;;;;3.58;2.58;;;14.60;99.90;;;;;;5046547;28;20047;-69
2022/09/03 02:04:19;;;;;;;6.03;2.83;;;14.60;99.90;;;;;;5059761;28;20041;-68
2022/09/03 02:06:47;;;;;;;3.55;2.58;;;14.60;99.90;;;;;;5048293;28;20403;-68
2022/09/03 02:09:14;;;;;;;4.75;2.30;;;14.60;99.90;;;;;;5045503;28;20044;-68
2022/09/03 02:11:40;;;;;;;4.75;2.28;;;14.60;99.90;;;;;;5046267;28;20049;-69
2022/09/03 02:14:06;;;;;;;7.78;2.60;;;14.60;99.90;;;;;;5036685;28;20202;-69
2022/09/03 02:16:33;;;;;;;5.40;2.60;;;14.50;99.90;;;;;;5047929;28;20036;-68
2022/09/03 02:19:09;;;;;;;5.85;2.60;;;14.50;99.90;;;;;;5058059;28;20433;-68
2022/09/03 02:21:39;;;;;;;7.53;2.40;;;14.50;99.90;;;;;;5047353;28;20428;-69
2022/09/03 02:24:07;;;;;;;4.43;2.42;;;14.50;99.90;;;;;;5038644;28;20060;-69
2022/09/03 02:26:33;;;;;;;4.35;2.50;;;14.60;99.90;;;;;;5044745;28;20037;-69
2022/09/03 02:29:00;;;;;;;4.70;2.70;;;14.50;99.90;;;;;;5047480;28;20092;-68
2022/09/03 02:31:27;;;;;;;7.30;2.67;;;14.60;99.90;;;;;;5046913;28;20387;-68
2022/09/03 02:33:54;;;;;;;4.65;2.40;;;14.60;99.90;;;;;;5043671;28;20040;-69
2022/09/03 02:36:25;;;;;;;3.42;2.20;;;14.60;99.90;;;;;;5044744;28;20067;-69
2022/09/03 02:38:51;;;;;;;3.22;2.40;;;14.60;99.90;;;;;;5054873;28;20037;-68
2022/09/03 02:41:17;;;;;;;8.27;2.15;;;14.70;99.90;;;;;;5043324;28;20408;-69
2022/09/03 02:43:55;;;;;;;2.97;2.40;;;14.70;99.90;;;;;;5044159;28;20037;-69
2022/09/03 02:46:25;;;;;;;3.90;2.20;;;14.70;99.90;;;;;;5040512;28;20036;-69
2022/09/03 02:48:52;;;;;;;9.48;3.35;;;14.80;99.90;;;;;;5030098;28;20396;-68
2022/09/03 02:51:18;;;;;;;5.47;2.50;;;14.80;99.90;;;;;;5057010;28;20045;-68
2022/09/03 02:53:44;;;;;;;6.60;2.33;;;14.80;99.90;;;;;;5049722;28;20529;-68
2022/09/03 02:56:10;;;;;;;4.20;2.20;;;14.80;99.90;;;;;;5048436;28;20028;-68
2022/09/03 02:58:36;;;;;;;3.50;2.50;;;14.90;99.90;;;;;;5052696;28;20048;-67
2022/09/03 03:01:01;;;;;;;3.28;2.15;;;14.80;99.90;;;;;;5039534;28;20037;-69
2022/09/03 03:03:28;;;;;;;3.80;2.30;;;14.90;99.90;;;;;;5044528;28;20467;-68
2022/09/03 03:05:56;;;;;;;4.80;2.17;;;14.90;99.90;;;;;;5045006;28;20049;-69
2022/09/03 03:08:26;;;;;;;3.17;2.63;;;14.80;99.90;;;;;;5060483;28;20399;-68
2022/09/03 03:10:55;;;;;;;2.60;1.90;;;14.90;99.90;;;;;;5059065;28;20044;-68
2022/09/03 03:13:21;;;;;;;3.40;2.22;;;14.80;99.90;;;;;;5026418;28;20041;-68
2022/09/03 03:15:47;;;;;;;3.50;2.47;;;14.90;99.90;;;;;;5044236;28;20457;-69
2022/09/03 03:18:14;;;;;;;3.30;2.30;;;14.90;99.90;;;;;;5043062;28;20403;-68
2022/09/03 03:20:40;;;;;;;4.03;2.33;;;14.90;99.90;;;;;;5043462;28;20036;-68
2022/09/03 03:23:07;;;;;;;3.60;2.25;;;14.90;99.90;;;;;;5040109;28;20052;-69
2022/09/03 03:25:37;;;;;;;3.85;2.13;;;14.80;99.90;;;;;;5030089;28;20135;-69
2022/09/03 03:28:04;;;;;;;5.88;2.10;;;14.80;99.90;;;;;;5041575;28;20044;-68
2022/09/03 03:30:30;;;;;;;4.10;2.08;;;14.80;99.90;;;;;;5034433;28;20621;-68
2022/09/03 03:32:56;;;;;;;3.08;2.03;;;14.80;99.90;;;;;;5059970;28;20041;-67
2022/09/03 03:35:22;;;;;;;3.03;2.17;;;14.80;99.90;;;;;;5035042;28;21006;-68
2022/09/03 03:37:47;;;;;;;4.57;2.22;;;14.80;99.90;;;;;;5060159;28;20033;-68
2022/09/03 03:40:14;;;;;;;5.22;2.10;;;14.80;99.90;;;;;;5044332;28;20060;-68
2022/09/03 03:42:40;;;;;;;4.38;2.20;;;14.80;99.90;;;;;;5053464;28;20082;-69
2022/09/03 03:45:07;;;;;;;2.55;2.22;;;14.80;99.90;;;;;;5039671;28;20045;-68
2022/09/03 03:47:33;;;;;;;6.28;2.50;;;14.80;99.90;;;;;;5045502;28;20518;-68
2022/09/03 03:49:59;;;;;;;2.70;2.13;;;14.70;99.90;;;;;;5059892;28;20052;-68
2022/09/03 03:52:25;;;;;;;2.58;2.03;;;14.80;99.90;;;;;;5044786;28;20045;-68
2022/09/03 03:54:52;;;;;;;2.65;2.20;;;14.70;99.90;;;;;;5051826;28;20146;-69
2022/09/03 03:57:19;;;;;;;2.97;2.13;;;14.70;99.90;;;;;;5057524;28;20069;-68
2022/09/03 03:59:45;;;;;;;4.70;2.28;;;14.70;99.90;;;;;;5051751;28;20036;-68
2022/09/03 04:02:11;;;;;;;2.67;2.40;;;14.70;99.90;;;;;;5043201;28;20043;-68
2022/09/03 04:04:37;;;;;;;2.25;1.83;;;14.70;99.90;;;;;;5041260;28;20072;-68
2022/09/03 04:07:03;;;;;;;4.15;2.35;;;14.70;99.90;;;;;;5029728;28;20115;-68
2022/09/03 04:09:28;;;;;;;3.55;2.03;;;14.60;99.90;;;;;;5042772;28;20047;-69
2022/09/03 04:11:56;;;;;;;4.55;2.30;;;14.60;99.90;;;;;;5035382;28;20399;-69
2022/09/03 04:14:23;;;;;;;6.35;2.30;;;14.60;99.90;;;;;;5060327;28;20072;-68
2022/09/03 04:16:49;;;;;;;4.50;1.90;;;14.60;99.90;;;;;;5042338;28;20132;-68
2022/09/03 04:19:16;;;;;;;3.80;2.10;;;14.50;99.90;;;;;;5046151;28;20053;-69
2022/09/03 04:21:41;;;;;;;4.40;2.00;;;14.50;99.90;;;;;;5054879;28;20040;-68
2022/09/03 04:24:07;;;;;;;3.42;2.25;;;14.40;99.90;;;;;;5048192;28;20040;-69
2022/09/03 04:26:34;;;;;;;4.55;2.00;;;14.40;99.90;;;;;;5050525;28;20040;-68
2022/09/03 04:29:02;;;;;;;2.13;1.85;;;14.40;99.90;;;;;;5047190;28;20045;-69
2022/09/03 04:31:29;;;;;;;3.85;2.17;;;14.30;99.90;;;;;;5048689;28;20049;-69
2022/09/03 04:33:54;;;;;;;4.45;2.10;;;14.30;99.90;;;;;;5046986;28;20449;-69
2022/09/03 04:36:23;;;;;;;2.85;2.13;;;14.20;99.90;;;;;;5043703;28;20036;-69
2022/09/03 04:38:51;;;;;;;2.90;2.00;;;14.20;99.90;;;;;;5048153;28;20044;-69
2022/09/03 04:41:21;;;;;;;3.33;2.28;;;14.10;99.90;;;;;;5045890;28;20407;-69
2022/09/03 04:43:48;;;;;;;3.75;2.28;;;14.10;99.90;;;;;;5061191;28;20052;-68
2022/09/03 04:46:15;;;;;;;5.63;2.95;;;14.10;99.90;;;;;;5059665;28;20091;-69
2022/09/03 04:48:41;;;;;;;2.85;2.35;;;14.00;99.90;;;;;;5043914;28;20514;-68
2022/09/03 04:51:15;;;;;;;4.72;2.22;;;14.00;99.90;;;;;;5046884;28;20032;-68
2022/09/03 04:53:45;;;;;;;4.18;2.30;;;13.90;99.90;;;;;;5043776;28;20041;-68
2022/09/03 04:56:17;;;;;;;5.60;2.58;;;13.90;99.90;;;;;;5035748;28;20079;-69
2022/09/03 04:58:43;;;;;;;5.80;2.35;;;13.90;99.90;;;;;;5045906;28;20044;-68
2022/09/03 05:01:11;;;;;;;3.05;2.20;;;13.90;99.90;;;;;;5048245;28;20045;-68
2022/09/03 05:03:37;;;;;;;4.22;2.38;;;13.80;99.90;;;;;;5046750;28;20043;-68
2022/09/03 05:06:05;;;;;;;3.63;2.42;;;13.80;99.90;;;;;;5044985;28;20087;-68
2022/09/03 05:08:31;;;;;;;3.35;2.17;;;13.80;99.90;;;;;;5041007;28;20119;-68
2022/09/03 05:11:00;;;;;;;4.63;2.20;;;13.80;99.90;;;;;;5059999;28;20041;-68
2022/09/03 05:13:27;;;;;;;6.95;2.47;;;13.70;99.90;;;;;;5047007;28;20077;-68
2022/09/03 05:16:07;;;;;;;5.90;2.38;;;13.70;99.90;;;;;;5043324;28;20047;-69
2022/09/03 05:18:36;;;;;;;4.70;2.33;;;13.70;99.90;;;;;;5039191;28;20883;-69
2022/09/03 05:21:13;;;;;;;2.88;2.05;;;13.70;99.90;;;;;;5036346;28;20044;-68
2022/09/03 05:23:41;;;;;;;6.65;2.40;;;13.70;99.90;;;;;;5045100;28;20037;-70
2022/09/03 05:26:12;;;;;;;2.58;2.30;;;13.70;99.90;;;;;;5049240;28;20048;-68
2022/09/03 05:28:39;;;;;;;5.63;2.35;;;13.70;99.90;;;;;;5060333;28;20057;-69
2022/09/03 05:31:11;;;;;;;5.15;2.17;;;13.60;99.90;;;;;;5056104;28;20044;-69
2022/09/03 05:33:40;;;;;;;4.25;2.00;;;13.70;99.90;;;;;;5062334;28;20059;-68
2022/09/03 05:36:08;;;;;;;7.10;2.53;;;13.60;99.90;;;;;;5051747;28;20037;-70
2022/09/03 05:38:34;;;;;;;4.03;2.38;;;13.60;99.90;;;;;;5044534;28;20041;-69
2022/09/03 05:41:05;;;;;;;4.53;2.30;;;13.60;99.90;;;;;;5058225;28;20040;-69
2022/09/03 05:43:32;;;;;;;3.83;2.42;;;13.60;99.90;;;;;;5056170;28;20430;-68
2022/09/03 05:46:08;;;;;;;4.93;2.30;;;13.60;99.90;;;;;;5054420;28;20112;-69
2022/09/03 05:48:35;;;;;;;4.18;2.35;;;13.60;99.90;;;;;;5054414;28;20045;-69
2022/09/03 05:51:09;;;;;;;4.13;2.15;;;13.70;99.90;;;;;;5058945;28;20120;-68
2022/09/03 05:53:37;;;;;;;3.22;2.70;;;13.70;99.90;;;;;;5067205;28;20075;-70
2022/09/03 05:56:09;;;;;;;26.85;3.35;;;13.70;99.90;;;;;;5074946;28;20040;-68
2022/09/03 05:58:42;;;;;;;10.43;2.80;;;13.70;99.90;;;;;;5061756;28;20039;-70
2022/09/03 06:01:12;;;;;;;;;;;13.80;99.90;;;;;;5058707;28;20403;-68
2022/09/03 06:03:37;;;;;;;4.93;2.47;;;13.80;99.90;;;;;;5052416;28;20432;-69
2022/09/03 06:06:04;;;;;;;6.25;2.90;;;13.90;99.90;;;;;;5047212;28;20037;-68
2022/09/03 06:08:30;;;;;;;7.15;2.50;;;13.90;99.90;;;;;;5049459;28;20509;-69
2022/09/03 06:11:00;;;;;;;5.63;2.65;;;13.90;99.90;;;;;;5050762;28;20045;-68
2022/09/03 06:13:26;;;;;;;4.85;2.63;;;14.00;99.90;;;;;;5050515;28;20056;-68
2022/09/03 06:15:59;;;;;;;7.15;3.00;;;14.00;99.90;;;;;;5049448;28;20045;-68
2022/09/03 06:18:26;;;;;;;2.97;2.50;;;14.10;99.90;;;;;;5046450;28;20081;-69
2022/09/03 06:21:01;;;;;;;5.18;2.80;;;14.10;99.90;;;;;;5053498;28;20051;-68
2022/09/03 06:23:27;;;;;;;5.30;2.45;;;14.20;99.90;;;;;;5056834;28;20127;-69
2022/09/03 06:26:11;;;;;;;8.43;2.95;;;14.30;99.90;;;;;;5049641;28;20044;-68
2022/09/03 06:28:42;;;;;;;3.10;2.80;;;14.30;99.90;;;;;;5046426;28;20045;-71
2022/09/03 06:31:10;;;;;;;3.95;2.70;;;14.50;99.90;;;;;;5041321;28;20033;-68
2022/09/03 06:33:37;;;;;;;6.72;3.00;;;14.50;99.90;;;;;;5050373;28;20040;-68
2022/09/03 06:36:06;;;;;;;4.65;3.42;;;14.70;99.90;;;;;;5057839;28;20029;-69
2022/09/03 06:38:36;;;;;;;4.70;2.80;;;14.80;99.90;;;;;;5053383;28;20155;-68
2022/09/03 06:41:06;;;;;;;5.28;2.65;;;14.90;99.90;;;;;;5049365;28;20438;-69
2022/09/03 06:43:37;;;;;;;4.90;2.63;;;15.00;99.90;;;;;;5050011;28;20390;-68
2022/09/03 06:46:09;;;;;;;5.70;2.60;;;15.10;99.90;;;;;;5046984;28;20525;-69
2022/09/03 06:48:36;;;;;;;6.47;2.80;;;15.20;99.90;;;;;;5047852;28;20476;-70
2022/09/03 06:51:11;;;;;;;4.88;2.70;;;15.30;99.90;;;;;;5040098;28;20471;-67
2022/09/03 06:53:42;;;;;;;5.63;2.50;;;15.40;99.90;;;;;;5046120;28;20045;-68
2022/09/03 06:56:09;;;;;;;6.28;2.65;;;15.40;99.90;;;;;;5043602;28;20032;-68
2022/09/03 06:58:41;;;;;;;5.78;2.80;;;15.60;99.90;;;;;;5059770;28;20032;-68
2022/09/03 07:01:12;;;;;;;5.47;2.97;;;15.70;99.90;;;;;;5060300;28;20144;-69
2022/09/03 07:03:40;;;;;;;4.53;2.78;;;15.80;99.90;;;;;;5057779;28;20110;-69
2022/09/03 07:06:14;;;;;;;9.88;2.80;;;15.90;99.90;;;;;;5050984;28;20068;-69
2022/09/03 07:08:41;;;;;;;12.98;3.17;;;16.00;99.90;;;;;;5043556;28;20045;-69
2022/09/03 07:11:09;;;;;;;3.90;2.67;;;16.10;99.90;;;;;;5052185;28;20445;-69
2022/09/03 07:13:40;;;;;;;6.57;2.53;;;16.20;99.90;;;;;;5030436;28;20038;-70
2022/09/03 07:16:20;;;;;;;5.25;2.92;;;16.30;99.90;;;;;;5054391;28;20067;-69
2022/09/03 07:18:47;;;;;;;6.72;2.85;;;16.40;99.90;;;;;;5050734;28;20036;-68
2022/09/03 07:21:15;;;;;;;6.53;3.45;;;16.50;99.90;;;;;;5055364;28;20360;-70
2022/09/03 07:23:41;;;;;;;3.72;2.60;;;16.60;99.90;;;;;;5048192;28;20048;-71
2022/09/03 07:26:11;;;;;;;8.23;2.90;;;16.70;99.90;;;;;;5051791;28;20068;-68
2022/09/03 07:28:38;;;;;;;3.17;2.80;;;16.70;99.90;;;;;;5042240;28;20041;-69
2022/09/03 07:31:13;;;;;;;5.28;2.97;;;16.80;99.90;;;;;;5048060;28;20123;-68
2022/09/03 07:33:40;;;;;;;3.92;2.95;;;16.90;99.90;;;;;;5062696;28;20144;-68
2022/09/03 07:36:09;;;;;;;5.65;3.20;;;17.00;99.90;;;;;;5049827;28;20055;-71
2022/09/03 07:38:35;;;;;;;5.28;3.10;;;17.10;99.90;;;;;;5049512;28;20084;-68
2022/09/03 07:41:04;;;;;;;6.35;2.58;;;17.20;99.90;;;;;;5048314;28;20052;-67
2022/09/03 07:43:34;;;;;;;5.88;3.08;;;17.30;99.90;;;;;;5040830;28;20590;-68
2022/09/03 07:46:00;;;;;;;5.10;2.88;;;17.40;99.90;;;;;;5038561;28;20084;-68
2022/09/03 07:48:26;;;;;;;7.32;2.67;;;17.50;99.90;;;;;;5042175;28;20084;-67
2022/09/03 07:50:59;;;;;;;5.45;3.10;;;17.50;99.90;;;;;;5054674;28;20032;-67
2022/09/03 07:53:26;;;;;;;6.07;3.00;;;17.60;99.90;;;;;;5050657;28;20112;-67
2022/09/03 07:55:51;;;;;;;8.32;2.90;;;17.70;99.90;;;;;;5053966;28;20124;-67
2022/09/03 07:58:17;;;;;;;8.35;2.90;;;17.80;99.90;;;;;;5048730;28;20120;-68
2022/09/03 08:00:42;;;;;;;9.38;3.65;;;17.90;99.90;;;;;;5051205;28;20041;-67
2022/09/03 08:03:08;;;;;;;8.75;3.38;;;18.00;99.90;;;;;;5047686;28;20098;-68
2022/09/03 08:05:35;;;;;;;4.88;3.30;;;18.00;99.90;;;;;;5032759;28;20048;-68
2022/09/03 08:08:03;;;;;;;6.20;3.28;;;18.10;99.90;;;;;;5045685;28;20037;-67
2022/09/03 08:10:30;;;;;;;5.10;3.20;;;18.20;99.90;;;;;;5060840;28;20084;-68
2022/09/03 08:12:58;;;;;;;5.32;3.15;;;18.30;99.90;;;;;;5058752;28;20312;-68
2022/09/03 08:15:25;;;;;;;4.10;3.00;;;18.40;99.90;;;;;;5035875;28;20036;-67
2022/09/03 08:17:51;;;;;;;5.68;3.17;;;18.50;99.90;;;;;;5047685;28;20487;-67
2022/09/03 08:20:17;;;;;;;7.25;3.42;;;18.50;99.90;;;;;;5035065;28;20100;-68
2022/09/03 08:22:43;;;;;;;6.80;3.10;;;18.60;99.90;;;;;;5035320;28;20045;-68
2022/09/03 08:25:08;;;;;;;5.28;3.40;;;18.70;99.90;;;;;;5063028;28;20052;-68
2022/09/03 08:27:34;;;;;;;8.30;3.00;;;18.80;99.90;;;;;;5039422;28;20041;-68
2022/09/03 08:30:00;;;;;;;5.90;3.20;;;18.90;99.90;;;;;;5048945;28;20410;-67
2022/09/03 08:32:26;;;;;;;6.30;3.53;;;19.00;99.90;;;;;;5045615;28;20037;-68
2022/09/03 08:34:51;;;;;;;6.18;3.50;;;19.10;99.90;;;;;;5044397;28;20288;-68
2022/09/03 08:37:17;;;;;;;8.60;3.70;;;19.20;99.90;;;;;;5047368;28;20479;-68
2022/09/03 08:39:44;;;;;;;5.82;4.22;;;19.30;99.90;;;;;;5039441;28;20042;-68
2022/09/03 08:42:31;;;;;;;9.13;3.30;;;19.30;99.90;;;;;;5066025;28;20037;-69
2022/09/03 08:45:01;;;;;;;7.40;3.75;;;19.40;99.90;;;;;;5067993;28;20399;-68
2022/09/03 08:48:00;;;;;;;5.50;3.42;;;19.50;99.90;;;;;;5037067;28;20068;-68
2022/09/03 08:50:34;;;;;;;7.28;3.28;;;19.60;99.90;;;;;;5035354;28;20053;-67
2022/09/03 08:53:06;;;;;;;9.88;3.75;;;19.70;99.90;;;;;;5047711;28;20049;-68
2022/09/03 08:55:52;;;;;;;8.57;3.38;;;19.80;99.90;;;;;;5046999;28;20037;-67
2022/09/03 08:58:21;;;;;;;5.43;3.38;;;19.90;99.90;;;;;;5053383;28;20053;-69
2022/09/03 09:01:08;;;;;;;7.13;3.50;;;20.00;99.90;;;;;;5049242;28;20051;-68
2022/09/03 09:04:01;;;;;;;5.32;3.50;;;20.10;99.90;;;;;;5044629;28;20052;-68
2022/09/03 09:06:34;;;;;;;6.40;3.63;;;20.20;99.90;;;;;;5049235;28;20099;-68
2022/09/03 09:09:28;;;;;;;7.50;3.55;;;20.30;99.90;;;;;;5051813;28;20086;-69
2022/09/03 09:12:18;;;;;;;6.28;3.75;;;20.40;99.90;;;;;;5039278;28;20102;-69
2022/09/03 09:14:49;;;;;;;6.53;3.70;;;20.40;99.90;;;;;;5045976;28;20077;-67
2022/09/03 09:17:21;;;;;;;6.37;3.70;;;20.50;99.90;;;;;;5054420;28;20053;-68
2022/09/03 09:19:56;;;;;;;12.77;3.70;;;20.60;99.90;;;;;;5049141;28;20315;-68
2022/09/03 09:22:46;;;;;;;6.68;3.35;;;20.60;99.90;;;;;;5034356;28;20537;-69
2022/09/03 09:25:21;;;;;;;9.82;3.55;;;20.70;99.90;;;;;;5058697;28;20480;-68
2022/09/03 09:27:56;;;;;;;7.05;3.58;;;20.80;99.90;;;;;;5054658;28;20042;-68
2022/09/03 09:30:22;;;;;;;5.18;3.63;;;20.90;99.90;;;;;;5035703;28;20032;-68
2022/09/03 09:32:48;;;;;;;11.23;3.83;;;21.00;99.90;;;;;;5042231;28;20399;-67
2022/09/03 09:35:16;;;;;;;9.27;3.80;;;21.00;99.90;;;;;;5038419;28;20472;-68
2022/09/03 09:37:51;;;;;;;8.10;3.85;;;21.20;99.90;;;;;;5041850;28;20091;-68
2022/09/03 09:40:31;;;;;;;9.05;3.60;;;21.30;99.90;;;;;;5031588;28;20511;-68
2022/09/03 09:43:14;;;;;;;7.80;3.67;;;21.40;99.90;;;;;;5044768;28;20044;-67
2022/09/03 09:45:43;;;;;;;8.02;4.00;;;21.40;99.90;;;;;;5050273;28;20095;-68
2022/09/03 09:48:14;;;;;;;11.60;4.10;;;21.50;99.90;;;;;;5042807;28;20506;-67
2022/09/03 09:50:40;;;;;;;8.65;3.58;;;21.60;99.90;;;;;;5046543;28;20048;-67
2022/09/03 09:53:13;;;;;;;10.55;3.90;;;21.70;99.90;;;;;;5050345;28;20033;-68
2022/09/03 09:55:54;;;;;;;7.32;3.95;;;21.80;99.90;;;;;;5050554;28;20041;-68
2022/09/03 09:58:25;;;;;;;10.25;3.90;;;21.90;99.90;;;;;;5045452;28;20402;-68
2022/09/03 10:01:21;;;;;;;12.80;3.85;;;22.00;99.90;;;;;;5050378;28;20037;-68
2022/09/03 10:03:58;;;;;;;7.80;4.00;;;22.10;99.60;;;;;;5052111;28;20083;-68
2022/09/03 10:09:13;;;;;;;8.73;4.05;;;22.30;99.80;;;;;;5047646;28;20080;-67
2022/09/03 10:11:46;;;;;;;7.05;3.90;;;22.30;99.70;;;;;;5051296;28;20045;-68
2022/09/03 10:14:26;;;;;;;8.18;4.40;;;22.50;99.60;;;;;;5046597;28;20399;-68
2022/09/03 10:16:59;;;;;;;12.57;4.30;;;22.50;99.10;;;;;;5045436;28;20115;-68
2022/09/03 10:19:39;;;;;;;7.43;3.72;;;22.60;99.10;;;;;;5046792;28;20045;-68
2022/09/03 10:22:19;;;;;;;9.90;3.80;;;22.70;98.40;;;;;;5052129;28;20041;-68
2022/09/03 10:24:55;;;;;;;8.60;3.92;;;22.70;98.60;;;;;;5040838;28;20040;-69
2022/09/03 10:27:21;;;;;;;12.88;3.90;;;22.80;98.50;;;;;;5044422;28;20049;-67
2022/09/03 10:29:49;;;;;;;6.75;3.80;;;22.90;97.70;;;;;;5046809;28;20049;-68
2022/09/03 10:32:45;;;;;;;6.85;3.50;;;22.90;97.80;;;;;;5036665;28;20482;-69
2022/09/03 10:35:29;;;;;;;9.05;3.90;;;23.00;97.30;;;;;;5047834;28;20041;-69
2022/09/03 10:38:06;;;;;;;7.57;3.85;;;23.00;96.80;;;;;;5048353;28;20049;-68
2022/09/03 10:40:41;;;;;;;8.65;4.28;;;23.10;96.70;;;;;;5067015;28;20041;-68
2022/09/03 10:43:19;;;;;;;10.52;4.40;;;23.10;96.90;;;;;;5047269;28;20419;-68
2022/09/03 10:45:51;;;;;;;6.15;4.20;;;23.20;96.00;;;;;;5046610;28;20458;-69
2022/09/03 10:48:31;;;;;;;9.38;4.03;;;23.20;96.70;;;;;;5050096;28;20120;-68
2022/09/03 10:51:04;;;;;;;8.38;3.70;;;23.30;96.10;;;;;;5043183;28;20048;-68
2022/09/03 10:53:30;;;;;;;10.52;4.32;;;23.30;95.90;;;;;;5058345;28;20067;-69
2022/09/03 10:56:01;;;;;;;17.00;4.85;;;23.40;95.90;;;;;;5051658;28;20036;-68
2022/09/03 10:59:08;;;;;;;11.45;4.25;;;23.40;94.90;;;;;;5045603;28;20044;-68
2022/09/03 11:01:48;;;;;;;14.07;3.75;;;23.50;95.30;;;;;;5056487;28;20041;-67
2022/09/03 11:04:39;;;;;;;8.25;4.00;;;23.50;95.00;;;;;;5066345;28;20056;-68
2022/09/03 11:07:09;;;;;;;7.57;4.30;;;23.50;94.70;;;;;;5059006;28;20036;-68
2022/09/03 11:09:40;;;;;;;6.88;4.15;;;23.60;94.40;;;;;;5044792;28;20083;-67
2022/09/03 11:12:11;;;;;;;7.13;3.97;;;23.60;94.30;;;;;;5045326;28;20052;-69
2022/09/03 11:14:41;;;;;;;6.63;4.13;;;23.70;94.20;;;;;;5050952;28;20479;-68
2022/09/03 11:17:33;;;;;;;5.50;3.85;;;23.70;94.40;;;;;;5037861;28;20037;-68
2022/09/03 11:20:21;;;;;;;8.13;4.30;;;23.80;94.00;;;;;;5064714;28;20053;-67
2022/09/03 11:22:54;;;;;;;7.18;4.03;;;23.80;93.70;;;;;;5049270;28;20049;-67
2022/09/03 11:25:24;;;;;;;9.05;4.28;;;23.90;93.20;;;;;;5039308;28;20447;-67
2022/09/03 11:28:20;;;;;;;7.65;4.10;;;23.90;93.20;;;;;;5047872;28;20454;-68
2022/09/03 11:31:26;;;;;;;8.70;4.13;;;23.90;92.80;;;;;;5054578;28;20048;-67
2022/09/03 11:34:06;;;;;;;11.40;4.25;;;24.00;91.90;;;;;;5038077;28;20133;-69
2022/09/03 11:36:35;;;;;;;6.65;3.90;;;24.00;92.70;;;;;;5048480;28;20041;-68
2022/09/03 11:39:17;;;;;;;7.50;4.28;;;24.10;92.30;;;;;;5058652;28;20044;-69
2022/09/03 11:41:43;;;;;;;8.27;4.25;;;24.10;91.00;;;;;;5044624;28;20053;-68
2022/09/03 11:44:36;;;;;;;8.23;4.28;;;24.00;91.40;;;;;;5050089;28;20063;-69
2022/09/03 11:47:14;;;;;;;18.00;4.40;;;24.10;91.10;;;;;;5053957;28;20083;-69
2022/09/03 11:49:46;;;;;;;6.78;4.20;;;24.10;91.50;;;;;;5066809;28;20075;-69
2022/09/03 11:52:12;;;;;;;5.93;4.07;;;24.20;91.20;;;;;;5051933;28;20399;-70
2022/09/03 11:54:45;;;;;;;8.57;4.10;;;24.20;91.20;;;;;;5051600;28;20033;-69
2022/09/03 11:57:21;;;;;;;10.00;4.15;;;24.20;90.90;;;;;;5037647;28;20041;-69
2022/09/03 11:59:47;;;;;;;7.35;4.15;;;24.30;91.60;;;;;;5055313;28;20036;-69
2022/09/03 12:02:32;;;;;;;8.15;3.95;;;24.40;91.40;;;;;;5049611;28;20033;-69
2022/09/03 12:05:18;;;;;;;9.30;4.03;;;24.40;90.20;;;;;;5070961;28;20044;-68
2022/09/03 12:08:21;;;;;;;7.30;4.45;;;24.40;90.60;;;;;;5065946;28;20073;-68
2022/09/03 12:11:19;;;;;;;8.40;4.05;;;24.50;89.50;;;;;;5068201;28;20135;-69
2022/09/03 12:14:20;;;;;;;6.65;4.18;;;24.50;90.10;;;;;;5046589;28;20049;-68
2022/09/03 12:16:59;;;;;;;6.50;4.00;;;24.50;90.10;;;;;;5045713;28;20052;-68
2022/09/03 12:19:36;;;;;;;7.82;4.20;;;24.60;89.90;;;;;;5048596;28;20094;-69
2022/09/03 12:22:04;;;;;;;7.05;3.92;;;24.60;90.10;;;;;;5044705;28;20033;-68
2022/09/03 12:24:34;;;;;;;10.80;4.30;;;24.60;90.30;;;;;;5052841;28;20049;-69
2022/09/03 12:27:01;;;;;;;9.85;4.40;;;24.50;89.30;;;;;;5047289;28;20037;-69
2022/09/03 12:29:29;;;;;;;23.60;5.07;;;24.50;88.00;;;;;;5039488;28;20048;-69
2022/09/03 12:31:55;;;;;;;15.25;4.35;;;24.50;86.60;;;;;;5040881;28;20086;-69
2022/09/03 12:34:22;;;;;;;18.58;4.75;;;24.50;88.30;;;;;;5029869;28;20059;-70
2022/09/03 12:36:53;;;;;;;7.45;4.20;;;24.60;89.80;;;;;;5053496;28;20037;-69
2022/09/03 12:39:24;;;;;;;18.92;6.38;;;24.60;87.80;;;;;;5052290;28;20051;-69
2022/09/03 12:41:56;;;;;;;12.10;5.22;;;24.60;87.70;;;;;;5068093;28;20041;-69
2022/09/03 12:44:46;;;;;;;13.45;4.75;;;24.70;87.80;;;;;;5070210;28;20083;-68
2022/09/03 12:47:16;;;;;;;26.23;6.50;;;24.70;87.20;;;;;;5051837;28;20372;-70
2022/09/03 12:49:43;;;;;;;23.45;6.50;;;24.70;88.30;;;;;;5059284;28;20041;-69
2022/09/03 12:52:32;;;;;;;21.45;5.53;;;24.70;89.00;;;;;;5036177;28;20045;-69
2022/09/03 12:55:22;;;;;;;12.02;3.90;;;24.80;89.20;;;;;;5055365;28;20115;-69
2022/09/03 12:58:22;;;;;;;4.95;3.30;;;24.80;87.80;;;;;;5053884;28;20161;-69
2022/09/03 13:01:10;;;;;;;7.22;3.75;;;24.70;87.10;;;;;;5043333;28;20049;-68
2022/09/03 13:03:48;;;;;;;6.35;3.63;;;24.80;86.50;;;;;;5050956;28;20044;-71
2022/09/03 13:06:18;;;;;;;7.18;3.95;;;24.70;87.00;;;;;;5053733;28;20055;-69
2022/09/03 13:08:49;;;;;;;8.93;3.50;;;24.70;86.90;;;;;;5053909;28;20093;-69
2022/09/03 13:11:18;;;;;;;7.80;3.70;;;24.80;87.50;;;;;;5057325;28;20103;-70
2022/09/03 13:14:13;;;;;;;9.07;3.65;;;24.80;87.90;;;;;;5049500;28;20040;-69
2022/09/03 13:16:42;;;;;;;4.45;3.42;;;24.90;88.00;;;;;;5046630;28;20083;-71
2022/09/03 13:19:39;;;;;;;6.78;3.45;;;24.90;87.80;;;;;;5058486;28;20067;-69